Time;durP1;ratioP1;P1;durP2;ratioP2;P2;SDS_P1;SDS_P2;PMS_P1;PMS_P2;Temp;Humidity;BMP_temperature;BMP_pressure;BME280_temperature;BME280_humidity;BME280_pressure;Samples;Min_cycle;Max_cycle;Signal;HPM_P1;HPM_P2
2020/12/24 00:01:22;;;;;;;0.52;0.52;;;4.10;99.90;;;;;;5094731;28;20199;-75
2020/12/24 00:03:48;;;;;;;9.43;3.83;;;4.10;99.90;;;;;;5098929;28;20645;-73
2020/12/24 00:06:14;;;;;;;0.95;0.95;;;4.00;99.90;;;;;;5110917;28;20196;-73
2020/12/24 00:08:40;;;;;;;1.48;1.02;;;4.10;99.90;;;;;;5111315;28;20152;-73
2020/12/24 00:11:08;;;;;;;1.40;1.30;;;4.20;99.90;;;;;;5111147;28;20182;-73
2020/12/24 00:13:35;;;;;;;2.80;2.60;;;4.30;99.90;;;;;;5111157;28;20194;-73
2020/12/24 00:16:03;;;;;;;1.58;1.48;;;4.40;99.90;;;;;;5111063;28;20234;-73
2020/12/24 00:18:29;;;;;;;1.92;1.83;;;4.30;99.90;;;;;;5110991;28;20191;-74
2020/12/24 00:20:56;;;;;;;1.20;1.10;;;4.30;99.90;;;;;;5111063;28;20147;-74
2020/12/24 00:23:22;;;;;;;1.65;1.55;;;4.20;99.90;;;;;;5110958;28;20166;-74
2020/12/24 00:25:48;;;;;;;1.42;1.23;;;4.10;99.90;;;;;;5110881;28;20198;-74
2020/12/24 00:28:14;;;;;;;0.82;0.82;;;4.10;99.90;;;;;;5109607;28;20189;-74
2020/12/24 00:30:41;;;;;;;1.58;1.35;;;4.00;99.90;;;;;;5110797;28;20159;-74
2020/12/24 00:33:11;;;;;;;1.20;1.20;;;4.00;99.90;;;;;;5110882;28;20178;-73
2020/12/24 00:35:38;;;;;;;2.03;1.92;;;3.90;99.90;;;;;;5110648;28;20187;-74
2020/12/24 00:38:04;;;;;;;0.20;0.20;;;3.90;99.90;;;;;;5110679;28;20183;-74
2020/12/24 00:40:30;;;;;;;7.40;2.00;;;4.00;99.90;;;;;;5110668;28;20179;-74
2020/12/24 00:42:56;;;;;;;1.90;1.80;;;4.00;99.90;;;;;;5110358;28;20223;-73
2020/12/24 00:45:22;;;;;;;0.40;0.40;;;4.20;99.90;;;;;;5110470;28;20202;-74
2020/12/24 00:47:50;;;;;;;3.47;2.38;;;4.10;99.90;;;;;;5110637;28;20181;-74
2020/12/24 00:50:17;;;;;;;0.73;0.73;;;4.10;99.90;;;;;;5110376;28;20243;-74
2020/12/24 00:52:42;;;;;;;0.93;0.93;;;4.00;99.90;;;;;;5110432;28;20159;-74
2020/12/24 00:55:08;;;;;;;0.90;0.90;;;4.00;99.90;;;;;;5110267;28;20201;-74
2020/12/24 00:57:34;;;;;;;2.05;1.92;;;4.10;99.90;;;;;;5110297;28;20219;-73
2020/12/24 01:00:00;;;;;;;4.00;2.35;;;4.00;99.90;;;;;;5110267;28;20219;-74
2020/12/24 01:02:26;;;;;;;2.05;1.95;;;4.00;99.90;;;;;;5110214;28;20159;-74
2020/12/24 01:04:52;;;;;;;0.82;0.82;;;4.10;99.90;;;;;;5108843;28;20191;-73
2020/12/24 01:07:18;;;;;;;2.15;1.83;;;4.20;99.90;;;;;;5110293;28;20522;-73
2020/12/24 01:09:44;;;;;;;1.88;1.80;;;4.20;99.90;;;;;;5110125;28;20159;-74
2020/12/24 01:12:09;;;;;;;0.38;0.38;;;4.20;99.90;;;;;;5110161;28;20539;-73
2020/12/24 01:14:35;;;;;;;1.25;1.20;;;4.20;99.90;;;;;;5110003;28;20226;-73
2020/12/24 01:17:01;;;;;;;1.23;1.23;;;4.30;99.90;;;;;;5110004;28;20219;-73
2020/12/24 01:19:27;;;;;;;1.65;1.55;;;4.20;99.90;;;;;;5109964;28;20197;-73
2020/12/24 01:21:53;;;;;;;0.63;0.63;;;4.10;99.90;;;;;;5109996;28;20151;-73
2020/12/24 01:24:18;;;;;;;0.57;0.57;;;4.00;99.90;;;;;;5109808;28;20240;-74
2020/12/24 01:26:46;;;;;;;1.35;1.33;;;3.90;99.90;;;;;;5109892;28;20163;-73
2020/12/24 01:29:12;;;;;;;3.15;2.95;;;3.90;99.90;;;;;;5108467;28;20179;-73
2020/12/24 01:31:45;;;;;;;1.38;1.38;;;3.90;99.90;;;;;;5108468;28;20639;-74
2020/12/24 01:34:11;;;;;;;1.40;1.40;;;3.90;99.90;;;;;;5109674;28;20186;-74
2020/12/24 01:36:40;;;;;;;0.60;0.60;;;3.70;99.90;;;;;;5109663;28;20187;-71
2020/12/24 01:39:07;;;;;;;0.30;0.30;;;3.60;99.90;;;;;;5109689;28;20183;-74
2020/12/24 01:41:33;;;;;;;1.85;1.75;;;3.60;99.90;;;;;;5109698;28;20171;-74
2020/12/24 01:43:59;;;;;;;0.55;0.55;;;3.50;99.90;;;;;;5109433;28;20601;-73
2020/12/24 01:46:26;;;;;;;1.60;0.55;;;3.60;99.90;;;;;;5109575;28;20181;-74
2020/12/24 01:48:52;;;;;;;2.08;1.95;;;3.60;99.90;;;;;;5109691;28;20160;-73
2020/12/24 01:51:27;;;;;;;1.05;1.05;;;3.60;99.90;;;;;;5109533;28;20159;-74
2020/12/24 01:53:56;;;;;;;0.68;0.68;;;3.70;99.90;;;;;;5109569;28;20155;-73
2020/12/24 01:56:23;;;;;;;0.60;0.60;;;3.70;99.90;;;;;;5109477;28;20151;-74
2020/12/24 01:58:52;;;;;;;0.57;0.57;;;3.70;99.90;;;;;;5112552;28;20159;-74
2020/12/24 02:01:19;;;;;;;0.55;0.55;;;3.80;99.90;;;;;;5113710;28;20182;-74
2020/12/24 02:03:45;;;;;;;1.27;1.17;;;3.70;99.90;;;;;;5113909;28;20163;-73
2020/12/24 02:06:11;;;;;;;0.65;0.65;;;3.80;99.90;;;;;;5113634;28;20273;-73
2020/12/24 02:08:38;;;;;;;0.75;0.75;;;3.80;99.90;;;;;;5113645;28;20214;-73
2020/12/24 02:11:04;;;;;;;15.48;1.30;;;3.80;99.90;;;;;;5113573;28;20162;-73
2020/12/24 02:13:30;;;;;;;0.30;0.30;;;3.90;99.90;;;;;;5112129;28;20186;-73
2020/12/24 02:15:56;;;;;;;0.35;0.35;;;4.00;99.90;;;;;;5113461;28;20191;-73
2020/12/24 02:18:24;;;;;;;0.75;0.75;;;3.90;99.90;;;;;;5113428;28;20198;-73
2020/12/24 02:20:51;;;;;;;0.73;0.70;;;3.90;99.90;;;;;;5113565;28;20170;-73
2020/12/24 02:23:17;;;;;;;0.40;0.40;;;3.80;99.90;;;;;;5113329;28;20219;-74
2020/12/24 02:25:43;;;;;;;1.77;1.67;;;3.80;99.90;;;;;;5113244;28;20187;-74
2020/12/24 02:28:10;;;;;;;2.47;1.15;;;3.90;99.90;;;;;;5113207;28;20178;-73
2020/12/24 02:30:37;;;;;;;0.75;0.75;;;3.80;99.90;;;;;;5113326;28;20168;-73
2020/12/24 02:33:04;;;;;;;1.20;1.20;;;3.80;99.90;;;;;;5113228;28;20158;-74
2020/12/24 02:35:30;;;;;;;1.55;1.45;;;3.80;99.90;;;;;;5113014;28;20190;-74
2020/12/24 02:37:56;;;;;;;0.73;0.73;;;3.80;99.90;;;;;;5112975;28;20184;-73
2020/12/24 02:40:22;;;;;;;4.03;1.88;;;3.80;99.90;;;;;;5113042;28;20151;-73
2020/12/24 02:42:48;;;;;;;1.23;1.13;;;3.80;99.90;;;;;;5112797;28;20219;-73
2020/12/24 02:45:13;;;;;;;0.68;0.68;;;3.80;99.90;;;;;;5112772;28;20187;-73
2020/12/24 02:47:39;;;;;;;2.42;2.30;;;3.70;99.90;;;;;;5112877;28;20159;-73
2020/12/24 02:50:08;;;;;;;0.98;0.98;;;3.70;99.90;;;;;;5112803;28;20174;-74
2020/12/24 02:52:35;;;;;;;2.40;2.20;;;3.50;99.90;;;;;;5112757;28;20167;-74
2020/12/24 02:55:05;;;;;;;1.17;1.05;;;3.40;99.90;;;;;;5112785;28;20191;-74
2020/12/24 02:57:31;;;;;;;0.20;0.20;;;3.30;99.90;;;;;;5112607;28;20207;-73
2020/12/24 02:59:58;;;;;;;0.88;0.88;;;3.30;99.90;;;;;;5112752;28;20179;-73
2020/12/24 03:02:24;;;;;;;0.22;0.22;;;3.30;99.90;;;;;;5112542;28;20248;-73
2020/12/24 03:04:49;;;;;;;0.60;0.60;;;3.30;99.90;;;;;;5111458;28;20671;-74
2020/12/24 03:07:15;;;;;;;0.95;0.95;;;3.30;99.90;;;;;;5112607;28;20198;-73
2020/12/24 03:09:41;;;;;;;2.58;2.42;;;3.40;99.90;;;;;;5111111;28;20168;-74
2020/12/24 03:12:10;;;;;;;0.60;0.60;;;3.40;99.90;;;;;;5111108;28;20178;-73
2020/12/24 03:14:37;;;;;;;0.68;0.63;;;3.40;99.90;;;;;;5112032;28;20203;-74
2020/12/24 03:17:02;;;;;;;0.90;0.90;;;3.50;99.90;;;;;;5110873;28;20202;-74
2020/12/24 03:19:29;;;;;;;0.55;0.55;;;3.50;99.90;;;;;;5112349;28;20159;-74
2020/12/24 03:21:54;;;;;;;0.70;0.70;;;3.60;99.90;;;;;;5112246;28;20243;-74
2020/12/24 03:24:20;;;;;;;0.43;0.43;;;3.60;99.90;;;;;;5112086;28;20183;-74
2020/12/24 03:26:46;;;;;;;1.33;1.33;;;3.50;99.90;;;;;;5110843;28;20171;-73
2020/12/24 03:29:12;;;;;;;0.65;0.65;;;3.50;99.90;;;;;;5112053;28;20211;-73
2020/12/24 03:31:38;;;;;;;0.73;0.50;;;3.50;99.90;;;;;;5112086;28;20175;-74
2020/12/24 03:34:04;;;;;;;1.75;1.63;;;3.60;99.90;;;;;;5111839;28;20214;-74
2020/12/24 03:36:30;;;;;;;1.23;1.23;;;3.60;99.90;;;;;;5111818;28;20179;-74
2020/12/24 03:38:56;;;;;;;0.20;0.20;;;3.70;99.90;;;;;;5111931;28;20152;-73
2020/12/24 03:41:21;;;;;;;0.30;0.30;;;3.70;99.90;;;;;;5111652;28;20164;-74
2020/12/24 03:43:47;;;;;;;0.70;0.70;;;3.70;99.90;;;;;;5110264;28;20233;-73
2020/12/24 03:46:13;;;;;;;0.45;0.45;;;3.80;99.90;;;;;;5111879;28;20198;-74
2020/12/24 03:48:39;;;;;;;0.20;0.20;;;3.80;99.90;;;;;;5111654;28;20163;-74
2020/12/24 03:51:05;;;;;;;0.10;0.10;;;4.00;99.90;;;;;;5111635;28;20164;-73
2020/12/24 03:53:31;;;;;;;0.30;0.30;;;4.10;99.90;;;;;;5111642;28;20183;-73
2020/12/24 03:55:58;;;;;;;0.90;0.90;;;4.00;99.90;;;;;;5111151;28;20222;-74
2020/12/24 03:58:24;;;;;;;1.48;0.70;;;4.00;99.90;;;;;;5111301;28;20187;-74
2020/12/24 04:00:50;;;;;;;1.05;1.05;;;4.10;99.90;;;;;;5110106;28;20178;-74
2020/12/24 04:03:16;;;;;;;1.58;1.13;;;4.00;99.90;;;;;;5110184;28;20209;-73
2020/12/24 04:05:42;;;;;;;0.60;0.60;;;4.20;99.90;;;;;;5109835;28;20555;-73
2020/12/24 04:08:08;;;;;;;1.45;1.45;;;4.20;99.90;;;;;;5111185;28;20160;-74
2020/12/24 04:10:34;;;;;;;2.20;2.10;;;4.30;99.90;;;;;;5111166;28;20170;-74
2020/12/24 04:13:00;;;;;;;1.48;1.38;;;4.30;99.90;;;;;;5111089;28;20174;-74
2020/12/24 04:15:26;;;;;;;2.45;1.95;;;4.30;99.90;;;;;;5110871;28;20244;-73
2020/12/24 04:17:52;;;;;;;1.73;1.20;;;4.20;99.90;;;;;;5110869;28;20183;-73
2020/12/24 04:20:18;;;;;;;2.58;2.47;;;4.20;99.90;;;;;;5109442;28;20181;-73
2020/12/24 04:22:44;;;;;;;1.25;1.25;;;4.20;99.90;;;;;;5109738;28;20202;-73
2020/12/24 04:25:10;;;;;;;1.10;1.02;;;4.20;99.90;;;;;;5110859;28;20693;-74
2020/12/24 04:27:35;;;;;;;0.82;0.82;;;4.20;99.90;;;;;;5110873;28;20175;-74
2020/12/24 04:30:02;;;;;;;0.82;0.82;;;4.20;99.90;;;;;;5110791;28;20163;-73
2020/12/24 04:32:28;;;;;;;0.95;0.88;;;4.10;99.90;;;;;;5109380;28;20182;-74
2020/12/24 04:34:54;;;;;;;0.88;0.88;;;4.00;99.90;;;;;;5110901;28;20191;-73
2020/12/24 04:37:20;;;;;;;1.35;1.23;;;4.10;99.90;;;;;;5109610;28;20206;-66
2020/12/24 04:39:46;;;;;;;0.47;0.47;;;4.10;99.90;;;;;;5110686;28;20156;-66
2020/12/24 04:42:13;;;;;;;7.32;2.70;;;4.20;99.90;;;;;;5110371;28;20334;-66
2020/12/24 04:44:43;;;;;;;2.75;2.47;;;4.20;99.90;;;;;;5110460;28;20198;-67
2020/12/24 04:47:09;;;;;;;0.90;0.90;;;4.10;99.90;;;;;;5110564;28;20227;-67
2020/12/24 04:49:35;;;;;;;0.77;0.77;;;4.10;99.90;;;;;;5110622;28;20238;-67
2020/12/24 04:52:02;;;;;;;0.60;0.60;;;4.10;99.90;;;;;;5109203;28;20185;-67
2020/12/24 04:54:31;;;;;;;2.92;2.65;;;4.00;99.90;;;;;;5109027;28;20266;-67
2020/12/24 04:57:08;;;;;;;0.50;0.50;;;4.00;99.90;;;;;;5110217;28;20189;-66
2020/12/24 04:59:36;;;;;;;6.07;2.15;;;4.00;99.90;;;;;;5110229;28;20155;-67
2020/12/24 05:02:03;;;;;;;0.77;0.77;;;3.90;99.90;;;;;;5110395;28;20155;-67
2020/12/24 05:04:30;;;;;;;1.13;1.08;;;3.90;99.90;;;;;;5110215;28;20183;-66
2020/12/24 05:07:04;;;;;;;1.40;1.30;;;3.90;99.90;;;;;;5110188;28;20199;-67
2020/12/24 05:09:31;;;;;;;0.35;0.35;;;4.00;99.90;;;;;;5109968;28;20163;-66
2020/12/24 05:11:56;;;;;;;0.55;0.55;;;4.10;99.90;;;;;;5110148;28;20620;-67
2020/12/24 05:14:24;;;;;;;0.95;0.95;;;4.20;99.90;;;;;;5110087;28;20225;-67
2020/12/24 05:17:04;;;;;;;2.28;2.15;;;4.20;99.90;;;;;;5109889;28;20194;-67
2020/12/24 05:19:35;;;;;;;1.15;1.15;;;4.10;99.90;;;;;;5108551;28;20208;-67
2020/12/24 05:22:18;;;;;;;0.32;0.32;;;4.20;99.90;;;;;;5108584;28;20267;-67
2020/12/24 05:24:44;;;;;;;0.73;0.73;;;4.20;99.90;;;;;;5109818;28;20190;-67
2020/12/24 05:27:12;;;;;;;0.20;0.20;;;4.30;99.90;;;;;;5109692;28;20311;-67
2020/12/24 05:29:40;;;;;;;0.88;0.88;;;4.30;99.90;;;;;;5109824;28;20166;-67
2020/12/24 05:32:07;;;;;;;0.50;0.50;;;4.30;99.90;;;;;;5109112;28;20171;-67
2020/12/24 05:34:34;;;;;;;0.25;0.25;;;4.30;99.90;;;;;;5109682;28;20195;-67
2020/12/24 05:37:17;;;;;;;0.15;0.15;;;4.30;99.90;;;;;;5109482;28;20187;-67
2020/12/24 05:39:45;;;;;;;0.43;0.43;;;4.20;99.90;;;;;;5109714;28;20147;-67
2020/12/24 05:42:11;;;;;;;0.80;0.80;;;4.20;99.90;;;;;;5107934;28;20502;-67
2020/12/24 05:44:38;;;;;;;0.38;0.38;;;4.10;99.90;;;;;;5109407;28;20252;-67
2020/12/24 05:47:05;;;;;;;0.20;0.20;;;4.10;99.90;;;;;;5108260;28;20197;-67
2020/12/24 05:49:33;;;;;;;1.45;1.40;;;4.10;99.90;;;;;;5109378;28;20215;-67
2020/12/24 05:52:06;;;;;;;0.20;0.20;;;4.00;99.90;;;;;;5109461;28;20161;-67
2020/12/24 05:54:34;;;;;;;0.30;0.30;;;4.00;99.90;;;;;;5109512;28;20190;-66
2020/12/24 05:57:01;;;;;;;0.75;0.75;;;4.00;99.90;;;;;;5108044;28;20195;-68
2020/12/24 05:59:29;;;;;;;0.40;0.40;;;4.00;99.90;;;;;;5109272;28;20174;-66
2020/12/24 06:02:13;;;;;;;1.77;1.70;;;4.10;99.90;;;;;;5109517;28;20245;-67
2020/12/24 06:04:44;;;;;;;0.47;0.47;;;4.10;99.90;;;;;;5109238;28;20191;-66
2020/12/24 06:07:15;;;;;;;0.85;0.85;;;4.20;99.90;;;;;;5108098;28;20167;-66
2020/12/24 06:09:42;;;;;;;0.22;0.22;;;4.20;99.90;;;;;;5109484;28;20243;-66
2020/12/24 06:12:22;;;;;;;0.25;0.25;;;4.20;99.90;;;;;;5109316;28;20522;-66
2020/12/24 06:14:50;;;;;;;0.28;0.28;;;4.20;99.90;;;;;;5109001;28;20194;-66
2020/12/24 06:17:18;;;;;;;0.57;0.57;;;4.20;99.90;;;;;;5109401;28;20195;-66
2020/12/24 06:19:44;;;;;;;0.98;0.98;;;4.10;99.90;;;;;;5109206;28;20156;-66
2020/12/24 06:22:11;;;;;;;0.13;0.13;;;4.10;99.90;;;;;;5109067;28;20159;-66
2020/12/24 06:24:43;;;;;;;2.30;1.75;;;4.00;99.90;;;;;;5107663;28;20199;-66
2020/12/24 06:27:35;;;;;;;1.27;1.17;;;4.00;99.90;;;;;;5109044;28;20155;-66
2020/12/24 06:30:06;;;;;;;0.82;0.82;;;4.00;99.90;;;;;;5109209;28;20160;-66
2020/12/24 06:32:40;;;;;;;1.33;1.33;;;4.10;99.90;;;;;;5109222;28;20163;-66
2020/12/24 06:35:07;;;;;;;2.38;2.08;;;4.00;99.90;;;;;;5108944;28;20214;-66
2020/12/24 06:37:41;;;;;;;1.05;1.05;;;4.10;99.90;;;;;;5108842;28;20194;-66
2020/12/24 06:40:28;;;;;;;1.90;1.80;;;4.00;99.90;;;;;;5108988;28;20160;-66
2020/12/24 06:42:54;;;;;;;0.25;0.25;;;4.00;99.90;;;;;;5108823;28;20211;-66
2020/12/24 06:45:19;;;;;;;3.35;3.05;;;3.90;99.90;;;;;;5112533;28;20193;-66
2020/12/24 06:48:08;;;;;;;1.63;1.58;;;4.00;99.90;;;;;;5112826;28;20198;-66
2020/12/24 06:50:40;;;;;;;2.33;2.17;;;4.10;99.90;;;;;;5112539;28;20179;-66
2020/12/24 06:53:41;;;;;;;0.57;0.57;;;4.10;99.90;;;;;;5112817;28;20163;-67
2020/12/24 06:56:16;;;;;;;1.92;1.83;;;4.10;99.90;;;;;;5110308;28;20202;-67
2020/12/24 06:58:48;;;;;;;0.75;0.75;;;4.00;99.90;;;;;;5110267;28;20218;-66
2020/12/24 07:01:21;;;;;;;1.38;1.27;;;4.10;99.90;;;;;;5093378;28;20171;-66
2020/12/24 07:03:51;;;;;;;0.70;0.70;;;4.10;99.90;;;;;;5110316;28;20179;-67
2020/12/24 07:06:41;;;;;;;3.45;1.85;;;3.90;99.90;;;;;;5110249;28;20266;-67
2020/12/24 07:09:19;;;;;;;1.98;1.13;;;3.90;99.90;;;;;;5093261;28;20218;-67
2020/12/24 07:11:53;;;;;;;2.92;2.78;;;3.90;99.90;;;;;;5109958;28;20255;-67
2020/12/24 07:14:37;;;;;;;3.08;1.33;;;3.90;99.90;;;;;;5109866;28;20237;-67
2020/12/24 07:17:09;;;;;;;0.80;0.80;;;3.90;99.90;;;;;;5109943;28;20881;-67
2020/12/24 07:19:37;;;;;;;0.55;0.55;;;3.80;99.90;;;;;;5110147;28;20164;-67
2020/12/24 07:22:09;;;;;;;0.82;0.82;;;3.80;99.90;;;;;;5110207;28;20167;-67
2020/12/24 07:24:35;;;;;;;1.17;1.17;;;3.90;99.90;;;;;;5109904;28;20207;-67
2020/12/24 07:27:04;;;;;;;0.82;0.82;;;3.90;99.90;;;;;;5109663;28;20156;-67
2020/12/24 07:29:32;;;;;;;1.00;1.00;;;3.90;99.90;;;;;;5110499;28;20197;-66
2020/12/24 07:32:06;;;;;;;0.55;0.55;;;3.90;99.90;;;;;;5111928;28;20579;-66
2020/12/24 07:34:36;;;;;;;0.43;0.38;;;4.00;99.90;;;;;;5111761;28;20191;-66
2020/12/24 07:37:03;;;;;;;0.30;0.30;;;4.00;99.90;;;;;;5111400;28;20187;-66
2020/12/24 07:39:30;;;;;;;0.40;0.40;;;4.10;99.90;;;;;;5111766;28;20181;-66
2020/12/24 07:41:57;;;;;;;1.27;1.00;;;4.20;99.90;;;;;;5111597;28;20151;-66
2020/12/24 07:44:23;;;;;;;0.82;0.82;;;4.30;99.90;;;;;;5111569;28;20203;-66
2020/12/24 07:46:51;;;;;;;3.53;2.05;;;4.40;99.90;;;;;;5111804;28;20238;-66
2020/12/24 07:49:21;;;;;;;0.57;0.57;;;4.60;99.90;;;;;;5111570;28;20159;-66
2020/12/24 07:51:54;;;;;;;0.25;0.25;;;4.70;99.90;;;;;;5111355;28;20198;-65
2020/12/24 07:54:27;;;;;;;1.20;1.20;;;4.60;99.90;;;;;;5111255;28;20207;-66
2020/12/24 07:56:54;;;;;;;2.35;2.15;;;4.70;99.90;;;;;;5110807;28;20183;-66
2020/12/24 07:59:21;;;;;;;1.15;1.15;;;4.80;99.90;;;;;;5111101;28;20159;-65
2020/12/24 08:01:47;;;;;;;1.65;1.55;;;4.80;99.90;;;;;;5110028;28;20161;-66
2020/12/24 08:04:13;;;;;;;0.22;0.22;;;4.90;99.90;;;;;;5111273;28;20178;-66
2020/12/24 08:06:39;;;;;;;0.28;0.28;;;4.80;99.90;;;;;;5111250;28;20155;-65
2020/12/24 08:09:18;;;;;;;0.28;0.28;;;5.00;99.90;;;;;;5111174;28;20160;-66
2020/12/24 08:11:55;;;;;;;0.40;0.30;;;5.10;99.90;;;;;;5109817;28;20175;-66
2020/12/24 08:14:26;;;;;;;0.75;0.73;;;5.30;99.90;;;;;;5109642;28;20191;-66
2020/12/24 08:16:58;;;;;;;2.15;1.95;;;5.40;99.90;;;;;;5110904;28;20179;-66
2020/12/24 08:19:46;;;;;;;0.93;0.93;;;5.60;99.90;;;;;;5109413;28;20178;-65
2020/12/24 08:22:15;;;;;;;2.20;2.10;;;5.70;99.90;;;;;;5110872;28;20151;-65
2020/12/24 08:24:42;;;;;;;0.28;0.28;;;5.80;99.90;;;;;;5110773;28;20187;-66
2020/12/24 08:27:08;;;;;;;2.17;2.08;;;5.90;99.90;;;;;;5109610;28;20187;-66
2020/12/24 08:29:37;;;;;;;0.80;0.80;;;5.90;99.90;;;;;;5109475;28;20171;-66
2020/12/24 08:32:04;;;;;;;2.00;1.90;;;6.00;99.90;;;;;;5110689;28;20158;-65
2020/12/24 08:34:30;;;;;;;1.00;0.80;;;6.10;99.90;;;;;;5109513;28;20671;-66
2020/12/24 08:36:57;;;;;;;1.48;1.15;;;6.20;99.90;;;;;;5110691;28;20197;-66
2020/12/24 08:39:22;;;;;;;0.30;0.30;;;6.30;99.90;;;;;;5109315;28;20175;-66
2020/12/24 08:42:00;;;;;;;0.68;0.68;;;6.40;99.90;;;;;;5110061;28;20162;-67
2020/12/24 08:44:26;;;;;;;1.50;1.48;;;6.50;99.90;;;;;;5110643;28;20194;-66
2020/12/24 08:47:06;;;;;;;0.95;0.95;;;6.70;99.90;;;;;;5110472;28;20159;-66
2020/12/24 08:49:38;;;;;;;1.73;1.63;;;6.80;99.90;;;;;;5110324;28;20308;-66
2020/12/24 08:52:20;;;;;;;0.35;0.35;;;7.00;99.90;;;;;;5110378;28;20178;-67
2020/12/24 08:55:00;;;;;;;1.20;1.13;;;7.40;99.90;;;;;;5110090;28;20210;-67
2020/12/24 08:57:27;;;;;;;0.25;0.25;;;7.80;99.90;;;;;;5110037;28;20250;-66
2020/12/24 08:59:54;;;;;;;0.77;0.77;;;8.00;99.90;;;;;;5110166;28;20177;-67
2020/12/24 09:02:28;;;;;;;2.08;1.98;;;8.20;99.90;;;;;;5110176;28;20152;-67
2020/12/24 09:04:56;;;;;;;0.63;0.63;;;8.50;99.90;;;;;;5110132;28;20194;-67
2020/12/24 09:07:34;;;;;;;0.88;0.82;;;8.70;99.90;;;;;;5107784;28;20175;-68
2020/12/24 09:10:11;;;;;;;0.77;0.77;;;9.20;99.90;;;;;;5110106;28;20193;-66
2020/12/24 09:12:41;;;;;;;0.95;0.95;;;10.00;99.90;;;;;;5110026;28;20187;-67
2020/12/24 09:15:15;;;;;;;1.52;1.42;;;10.30;99.90;;;;;;5108382;28;20222;-67
2020/12/24 09:17:55;;;;;;;2.40;1.42;;;10.70;99.90;;;;;;5109788;28;20208;-66
2020/12/24 09:20:25;;;;;;;0.43;0.43;;;10.60;99.90;;;;;;5109771;28;20160;-67
2020/12/24 09:22:56;;;;;;;1.60;1.50;;;10.60;99.90;;;;;;5109686;28;20158;-67
2020/12/24 09:25:46;;;;;;;0.60;0.60;;;10.60;99.90;;;;;;5109846;28;20191;-67
2020/12/24 09:28:27;;;;;;;2.28;2.17;;;10.80;99.90;;;;;;5109695;28;20159;-67
2020/12/24 09:30:56;;;;;;;1.02;0.93;;;11.20;99.90;;;;;;5109569;28;20151;-66
2020/12/24 09:33:21;;;;;;;1.52;1.42;;;11.50;99.90;;;;;;5109494;28;20168;-67
2020/12/24 09:35:48;;;;;;;2.10;1.38;;;11.30;99.90;;;;;;5109620;28;20229;-65
2020/12/24 09:38:14;;;;;;;0.70;0.70;;;11.30;99.90;;;;;;5109635;28;20195;-66
2020/12/24 09:40:40;;;;;;;3.55;2.78;;;11.00;99.90;;;;;;5108155;28;20167;-65
2020/12/24 09:43:06;;;;;;;3.40;2.95;;;10.70;99.90;;;;;;5109205;28;20230;-65
2020/12/24 09:45:33;;;;;;;0.40;0.40;;;10.50;99.90;;;;;;5109358;28;20191;-66
2020/12/24 09:47:59;;;;;;;1.10;1.10;;;10.50;99.90;;;;;;5109473;28;20167;-67
2020/12/24 09:50:25;;;;;;;3.97;1.90;;;10.40;99.90;;;;;;5108484;28;20632;-67
2020/12/24 09:52:51;;;;;;;3.85;2.45;;;10.10;99.90;;;;;;5109438;28;20159;-67
2020/12/24 09:55:17;;;;;;;2.70;2.53;;;10.00;99.90;;;;;;5109086;28;20206;-66
2020/12/24 09:57:43;;;;;;;2.45;1.50;;;9.90;99.90;;;;;;5109077;28;20182;-66
2020/12/24 10:00:10;;;;;;;0.80;0.73;;;9.60;99.90;;;;;;5109358;28;20608;-66
2020/12/24 10:02:38;;;;;;;4.43;4.07;;;9.30;99.90;;;;;;5109167;28;20503;-66
2020/12/24 10:05:07;;;;;;;0.77;0.77;;;9.30;99.90;;;;;;5109299;28;20191;-67
2020/12/24 10:07:34;;;;;;;2.65;1.77;;;9.20;99.90;;;;;;5108043;28;20191;-66
2020/12/24 10:10:00;;;;;;;1.15;0.75;;;9.20;99.90;;;;;;5109141;28;20156;-66
2020/12/24 10:12:29;;;;;;;2.15;1.95;;;9.10;99.90;;;;;;5109052;28;20191;-67
2020/12/24 10:14:55;;;;;;;2.90;2.28;;;9.30;99.90;;;;;;5109107;28;20330;-67
2020/12/24 10:17:22;;;;;;;0.85;0.80;;;9.30;99.90;;;;;;5109133;28;20179;-67
2020/12/24 10:19:48;;;;;;;1.10;1.00;;;9.30;99.90;;;;;;5110710;28;20176;-66
2020/12/24 10:22:14;;;;;;;1.02;1.02;;;9.40;99.90;;;;;;5113113;28;20147;-66
2020/12/24 10:24:43;;;;;;;0.93;0.93;;;9.20;99.90;;;;;;5112998;28;20194;-67
2020/12/24 10:27:10;;;;;;;1.80;1.70;;;9.30;99.90;;;;;;5113149;28;20159;-66
2020/12/24 10:29:37;;;;;;;0.98;0.98;;;9.50;99.90;;;;;;5113125;28;20155;-67
2020/12/24 10:32:03;;;;;;;1.98;0.70;;;9.60;99.90;;;;;;5113014;28;20163;-67
2020/12/24 10:34:29;;;;;;;3.97;2.90;;;9.70;99.90;;;;;;5112804;28;20187;-67
2020/12/24 10:36:59;;;;;;;0.63;0.63;;;9.80;99.90;;;;;;5112918;28;20194;-66
2020/12/24 10:39:25;;;;;;;0.50;0.50;;;9.80;99.90;;;;;;5113030;28;20160;-67
2020/12/24 10:41:51;;;;;;;0.98;0.98;;;10.00;99.90;;;;;;5112654;28;20151;-67
2020/12/24 10:44:18;;;;;;;0.80;0.80;;;10.10;99.90;;;;;;5111333;28;20205;-67
2020/12/24 10:46:44;;;;;;;2.22;0.52;;;10.20;99.90;;;;;;5112880;28;20160;-67
2020/12/24 10:49:11;;;;;;;1.70;1.60;;;10.20;99.90;;;;;;5112507;28;20167;-66
2020/12/24 10:51:36;;;;;;;1.02;1.02;;;10.10;99.90;;;;;;5111358;28;20182;-66
2020/12/24 10:54:03;;;;;;;1.27;1.27;;;10.10;99.90;;;;;;5112647;28;20155;-67
2020/12/24 10:56:29;;;;;;;1.60;1.50;;;10.00;99.90;;;;;;5112331;28;20198;-66
2020/12/24 10:58:55;;;;;;;1.30;1.20;;;9.90;99.90;;;;;;5112435;28;20214;-66
2020/12/24 11:01:21;;;;;;;0.60;0.60;;;9.60;99.90;;;;;;5112444;28;20152;-66
2020/12/24 11:03:47;;;;;;;1.17;0.98;;;9.30;99.90;;;;;;5112537;28;20158;-66
2020/12/24 11:06:21;;;;;;;2.85;2.60;;;9.20;99.90;;;;;;5112472;28;20199;-66
2020/12/24 11:08:48;;;;;;;0.17;0.15;;;9.10;99.90;;;;;;5112338;28;20182;-66
2020/12/24 11:11:14;;;;;;;1.02;0.95;;;9.10;99.90;;;;;;5112290;28;20155;-66
2020/12/24 11:13:44;;;;;;;1.90;1.80;;;9.10;99.90;;;;;;5110687;28;20179;-66
2020/12/24 11:16:13;;;;;;;0.68;0.68;;;9.10;99.90;;;;;;5112081;28;20195;-66
2020/12/24 11:18:39;;;;;;;1.08;1.08;;;8.90;99.90;;;;;;5110305;28;20194;-66
2020/12/24 11:21:06;;;;;;;1.27;1.27;;;8.80;99.90;;;;;;5110421;28;20156;-66
2020/12/24 11:23:32;;;;;;;0.68;0.68;;;8.70;99.90;;;;;;5112199;28;20270;-66
2020/12/24 11:25:58;;;;;;;0.73;0.73;;;8.60;99.90;;;;;;5111998;28;20224;-66
2020/12/24 11:28:24;;;;;;;2.03;1.90;;;8.60;99.90;;;;;;5111852;28;20159;-66
2020/12/24 11:30:50;;;;;;;1.08;1.05;;;8.60;99.90;;;;;;5110838;28;20163;-66
2020/12/24 11:33:15;;;;;;;0.40;0.40;;;8.60;99.90;;;;;;5111671;28;20191;-66
2020/12/24 11:35:41;;;;;;;0.95;0.95;;;8.50;99.90;;;;;;5111700;28;20627;-66
2020/12/24 11:38:07;;;;;;;0.95;0.95;;;8.50;99.90;;;;;;5111676;28;20187;-66
2020/12/24 11:40:33;;;;;;;1.75;1.40;;;8.50;99.90;;;;;;5111787;28;20162;-66
2020/12/24 11:42:59;;;;;;;0.40;0.40;;;8.50;99.90;;;;;;5111296;28;20244;-67
2020/12/24 11:45:24;;;;;;;4.68;0.57;;;8.50;99.90;;;;;;5111753;28;20164;-66
2020/12/24 11:47:50;;;;;;;0.88;0.88;;;8.50;99.90;;;;;;5111383;28;20259;-67
2020/12/24 11:50:16;;;;;;;2.92;1.67;;;8.50;99.90;;;;;;5111557;28;20166;-66
2020/12/24 11:52:42;;;;;;;0.80;0.80;;;8.60;99.90;;;;;;5111460;28;20191;-66
2020/12/24 11:55:08;;;;;;;0.95;0.95;;;8.80;99.90;;;;;;5111542;28;20167;-66
2020/12/24 11:57:37;;;;;;;0.50;0.50;;;8.90;99.90;;;;;;5111325;28;20211;-66
2020/12/24 12:00:07;;;;;;;0.40;0.40;;;8.80;99.90;;;;;;5111512;28;20152;-66
2020/12/24 12:02:33;;;;;;;0.52;0.52;;;8.70;99.90;;;;;;5111161;28;20190;-66
2020/12/24 12:04:59;;;;;;;0.20;0.20;;;8.80;99.90;;;;;;5111291;28;20220;-66
2020/12/24 12:07:25;;;;;;;1.00;1.00;;;8.90;99.90;;;;;;5111115;28;20219;-66
2020/12/24 12:09:51;;;;;;;2.08;1.98;;;8.90;99.90;;;;;;5109427;28;20175;-67
2020/12/24 12:12:17;;;;;;;0.68;0.68;;;8.70;99.90;;;;;;5111069;28;20222;-66
2020/12/24 12:14:43;;;;;;;0.50;0.50;;;8.60;99.90;;;;;;5111098;28;20159;-66
2020/12/24 12:17:13;;;;;;;0.82;0.82;;;8.50;99.90;;;;;;5110957;28;20213;-66
2020/12/24 12:19:44;;;;;;;0.17;0.17;;;8.40;99.90;;;;;;5110991;28;20155;-66
2020/12/24 12:22:13;;;;;;;0.98;0.45;;;8.50;99.90;;;;;;5110777;28;20183;-66
2020/12/24 12:24:43;;;;;;;0.77;0.77;;;8.60;99.90;;;;;;5110691;28;20492;-66
2020/12/24 12:27:09;;;;;;;1.42;1.30;;;8.80;99.90;;;;;;5110747;28;20167;-66
2020/12/24 12:29:35;;;;;;;0.35;0.35;;;8.80;99.90;;;;;;5110752;28;20620;-67
2020/12/24 12:32:03;;;;;;;0.43;0.43;;;8.90;99.90;;;;;;5110712;28;20197;-66
2020/12/24 12:34:28;;;;;;;0.90;0.90;;;8.90;99.90;;;;;;5109394;28;20183;-66
2020/12/24 12:36:55;;;;;;;3.40;1.27;;;8.80;99.90;;;;;;5110536;28;20198;-66
2020/12/24 12:39:22;;;;;;;0.60;0.60;;;8.80;99.90;;;;;;5110527;28;20267;-66
2020/12/24 12:41:51;;;;;;;0.57;0.57;;;8.90;99.90;;;;;;5110352;28;20632;-67
2020/12/24 12:44:17;;;;;;;0.63;0.60;;;8.90;99.90;;;;;;5110541;28;20178;-66
2020/12/24 12:46:43;;;;;;;0.30;0.30;;;8.90;99.90;;;;;;5110510;28;20160;-66
2020/12/24 12:49:09;;;;;;;2.13;1.85;;;9.00;99.90;;;;;;5109200;28;20168;-66
2020/12/24 12:51:36;;;;;;;1.40;0.68;;;8.90;99.90;;;;;;5109067;28;20200;-66
2020/12/24 12:54:02;;;;;;;0.15;0.15;;;8.80;99.90;;;;;;5110168;28;20151;-66
2020/12/24 12:56:28;;;;;;;0.40;0.40;;;8.80;99.90;;;;;;5110435;28;20608;-66
2020/12/24 12:58:54;;;;;;;1.00;1.00;;;8.60;99.90;;;;;;5108883;28;20195;-66
2020/12/24 13:01:21;;;;;;;0.20;0.20;;;8.50;99.90;;;;;;5110301;28;20620;-66